Terminal Aerodrome Forecast
Issued by NWS

Home | Current Version | Previous Version | Graphics & Text | Print | Product List | Glossary On
Versions: 1 2 3 4 5 6 7 8 9 10 11 12 13 14 15 16 17 18 19 20 21
000
FTUS43 KGRB 212234 AAA
TAFAUW
TAF AMD
KAUW 212234Z 2123/2218 15008KT P6SM SCT025
     FM220300 15007KT 5SM BR SCT015 SCT035
     FM220600 15007KT 4SM BR SCT080 WS013/22035KT
     FM221400 19010G17KT P6SM SCT035=

USA.gov is the U.S. government's official web portal to all federal, state and local government web resources and services.